createdAt,value
2017-07-06T12:32:47.970Z,15.93
2017-07-06T12:35:18.594Z,14.90
2017-07-06T12:37:48.902Z,10.33
2017-07-06T12:40:19.349Z,11.60
2017-07-06T12:42:49.997Z,11.40
2017-07-06T12:45:20.805Z,9.70
2017-07-06T12:47:51.394Z,9.37
2017-07-06T12:50:22.689Z,8.70
2017-07-06T12:52:53.266Z,8.50
2017-07-06T12:55:24.819Z,8.37
2017-07-06T12:57:55.654Z,8.00
2017-07-06T13:00:26.033Z,9.37
2017-07-06T13:02:56.975Z,7.87
2017-07-06T13:05:27.281Z,7.40
2017-07-06T13:07:57.754Z,6.77
2017-07-06T13:10:28.561Z,7.90
2017-07-06T13:12:58.875Z,6.90
2017-07-06T13:15:29.235Z,6.90
2017-07-06T13:17:59.542Z,6.83
2017-07-06T13:20:29.841Z,6.70
2017-07-06T13:23:00.143Z,9.40
2017-07-06T13:25:30.866Z,14.23
2017-07-06T13:28:01.261Z,19.47
2017-07-06T13:30:31.546Z,12.57
2017-07-06T13:33:02.112Z,11.63
2017-07-06T13:35:32.983Z,14.03
2017-07-06T13:38:03.681Z,9.43
2017-07-06T13:40:34.694Z,11.10
2017-07-06T13:43:05.289Z,8.80
2017-07-06T13:45:37.022Z,9.30
2017-07-06T13:48:07.397Z,8.40
2017-07-06T13:50:38.054Z,20.87
2017-07-06T13:53:08.655Z,43.80
2017-07-06T13:55:39.118Z,56.70
2017-07-06T13:58:09.529Z,52.13
2017-07-06T14:00:40.122Z,47.70
2017-07-06T14:03:11.302Z,41.30
2017-07-06T14:05:41.570Z,30.57
2017-07-06T14:08:11.875Z,22.50
2017-07-06T14:10:42.173Z,24.57
2017-07-06T14:13:12.936Z,21.07
2017-07-06T14:15:43.723Z,22.70
2017-07-06T14:18:14.102Z,13.67
2017-07-06T14:20:44.479Z,9.87
2017-07-06T14:23:14.810Z,12.67
2017-07-06T14:25:45.086Z,11.23
2017-07-06T14:28:15.384Z,16.20
2017-07-06T14:30:45.989Z,27.50
2017-07-06T14:33:16.519Z,31.10
2017-07-06T14:35:47.378Z,25.87
2017-07-06T14:38:17.790Z,24.23
2017-07-06T14:40:48.081Z,29.10
2017-07-06T14:43:18.417Z,24.47
2017-07-06T14:45:49.829Z,23.47
2017-07-06T14:48:20.656Z,18.33
2017-07-06T14:50:51.484Z,17.13
2017-07-06T14:53:22.248Z,16.07
2017-07-06T14:55:52.975Z,14.87
2017-07-06T14:58:23.533Z,13.67
2017-07-06T15:00:54.319Z,12.43
2017-07-06T15:03:24.747Z,12.80
2017-07-06T15:05:55.026Z,17.27
2017-07-06T15:08:26.612Z,31.30
2017-07-06T15:10:56.901Z,28.13
2017-07-06T15:13:27.184Z,34.80
2017-07-06T15:15:58.259Z,38.20
2017-07-06T15:18:29.097Z,35.10
2017-07-06T15:20:59.403Z,34.50
2017-07-06T15:23:29.774Z,30.53
2017-07-06T15:26:00.310Z,28.07
2017-07-06T15:28:30.817Z,26.10
2017-07-06T15:31:02.445Z,24.97
2017-07-06T15:33:33.478Z,23.80
2017-07-06T15:36:03.753Z,23.70
2017-07-06T15:38:34.045Z,21.70
2017-07-06T15:41:04.384Z,21.63
2017-07-06T15:43:34.686Z,20.13
2017-07-06T15:46:05.044Z,18.00
2017-07-06T15:48:35.864Z,16.77
2017-07-06T15:51:06.159Z,16.60
2017-07-06T15:53:36.489Z,16.47
2017-07-06T15:56:07.025Z,15.73
2017-07-06T15:58:37.911Z,17.57
2017-07-06T16:01:08.541Z,16.80
2017-07-06T16:03:38.838Z,49.10
2017-07-06T16:06:09.365Z,39.20
2017-07-06T16:08:40.098Z,33.70
2017-07-06T16:11:10.681Z,38.47
2017-07-06T16:13:41.206Z,39.40
2017-07-06T16:16:11.794Z,40.33
2017-07-06T16:18:42.846Z,45.20
2017-07-06T16:21:13.243Z,38.07
2017-07-06T16:23:43.688Z,37.73
2017-07-06T16:26:14.481Z,33.60
2017-07-06T16:28:45.606Z,34.60
2017-07-06T16:31:16.015Z,29.10
2017-07-06T16:33:47.251Z,27.67
2017-07-06T16:36:18.600Z,23.43
2017-07-06T16:38:50.316Z,24.40
2017-07-06T16:41:22.085Z,25.50
2017-07-06T16:43:52.741Z,35.30
2017-07-06T16:46:23.125Z,40.67
2017-07-06T16:48:54.750Z,41.03
2017-07-06T16:51:25.772Z,41.90
2017-07-06T16:53:56.176Z,43.03
2017-07-06T16:56:26.798Z,42.10
2017-07-06T16:58:57.442Z,42.70
2017-07-06T17:01:28.813Z,42.90
2017-07-06T17:04:00.629Z,42.60
2017-07-06T17:06:31.105Z,40.50
2017-07-06T17:09:02.481Z,33.73
2017-07-06T17:11:33.494Z,35.03
2017-07-06T17:14:03.846Z,31.63
